This is the latest recevied weather packets stored in our database for station/object ALANSN-2. If no packets are shown the sender has not sent any weather packets the latest 10 day(s).
| Time | Temp. | Humidity | Pressure | Rain* | Wind** | Luminosity | Snow |
|---|---|---|---|---|---|---|---|
| 1777845302 | 14.44° C | 70% | 1008.2 hPa | 0 mm | - | 106 W/m² | - |
| 1777844102 | 14.44° C | 69% | 1008.3 hPa | 0 mm | - | 118 W/m² | - |
| 1777842302 | 13.89° C | 70% | 1008.9 hPa | 0 mm | - | 204 W/m² | - |
| 1777840802 | 13.33° C | 70% | 1009.2 hPa | 0 mm | - | 516 W/m² | - |
| 1777839302 | 13.89° C | 68% | 1010.1 hPa | 0 mm | - | 537 W/m² | - |
| 1777837202 | 13.33° C | 67% | 1010.3 hPa | 0 mm | - | 481 W/m² | - |
| 1777833602 | 12.78° C | 69% | 1011.2 hPa | 0 mm | - | 591 W/m² | - |
| 1777833002 | 12.22° C | 74% | 1011.2 hPa | 0 mm | - | 391 W/m² | - |
| 1777828502 | 10.56° C | 82% | 1012.2 hPa | 0 mm | - | 156 W/m² | - |
| 1777822202 | 9.44° C | 78% | 1013.3 hPa | 0 mm | - | 144 W/m² | - |
| 1777818002 | 8.89° C | 77% | 1013.5 hPa | 0 mm | - | 300 W/m² | - |
| 1777815002 | 7.22° C | 82% | 1014.3 hPa | 0 mm | - | 87 W/m² | - |
| 1777801201 | 0.56° C | 75% | 1016.9 hPa | 0 mm | - | 0 W/m² | - |
| 1777800902 | 0.56° C | 75% | 1017.1 hPa | 0 mm | - | 0 W/m² | - |
| 1777800601 | 0.56° C | 74% | 1017.1 hPa | 0 mm | - | 0 W/m² | - |
| 1777800302 | 1.11° C | 78% | 1017.4 hPa | 0 mm | - | 0 W/m² | - |
| 1777800002 | 1.11° C | 77% | 1017.4 hPa | 0 mm | - | 0 W/m² | - |
| 1777799701 | 0.56° C | 78% | 1017.3 hPa | 0 mm | - | 0 W/m² | - |
| 1777799402 | 0° C | 80% | 1017.4 hPa | 0 mm | - | 0 W/m² | - |
| 1777798802 | -0.56° C | 85% | 1017.7 hPa | 0 mm | - | 0 W/m² | - |
| 1777798502 | -1.11° C | 90% | 1017.8 hPa | 0 mm | - | 0 W/m² | - |
| 1777798201 | -1.11° C | 92% | 1017.9 hPa | 0 mm | - | 0 W/m² | - |
| 1777797302 | -2.22° C | 93% | 1018.1 hPa | 0 mm | - | 0 W/m² | - |
| 1777797002 | -2.22° C | 93% | 1018.1 hPa | 0 mm | - | 0 W/m² | - |
| 1777796701 | -2.22° C | 93% | 1018.1 hPa | 0 mm | - | 0 W/m² | - |
* Rain latest hour (hover to see other rain measurements)
** Current wind speed in m/s (hover to see current wind gust speed)